Time;durP1;ratioP1;P1;durP2;ratioP2;P2;SDS_P1;SDS_P2;PMS_P1;PMS_P2;Temp;Humidity;BMP_temperature;BMP_pressure;BME280_temperature;BME280_humidity;BME280_pressure;Samples;Min_cycle;Max_cycle;Signal;HPM_P1;HPM_P2
2023/03/10 00:02:21;;;;;;;10.27;9.67;;;;;;;10.23;79.84;92100.06;5068917;28;20269;-75
2023/03/10 00:04:53;;;;;;;11.90;10.77;;;;;;;10.23;79.36;92101.91;5069486;28;20190;-75
2023/03/10 00:07:19;;;;;;;11.57;10.60;;;;;;;10.10;80.40;92110.50;5068958;28;20197;-74
2023/03/10 00:09:45;;;;;;;10.43;9.73;;;;;;;9.99;81.17;92099.44;5069437;28;20742;-75
2023/03/10 00:12:11;;;;;;;11.30;10.60;;;;;;;9.81;81.86;92092.41;5068820;28;21149;-74
2023/03/10 00:14:36;;;;;;;10.70;9.90;;;;;;;9.84;82.63;92104.88;5069074;28;20196;-75
2023/03/10 00:17:02;;;;;;;10.90;9.90;;;;;;;9.82;83.47;92120.06;5068717;28;20281;-74
2023/03/10 00:19:28;;;;;;;11.33;10.43;;;;;;;9.91;83.11;92120.16;5069577;28;20762;-81
2023/03/10 00:21:54;;;;;;;11.17;10.33;;;;;;;10.00;82.57;92103.56;5069078;28;20225;-76
2023/03/10 00:24:19;;;;;;;11.40;10.67;;;;;;;9.88;84.45;92110.31;5069238;28;20187;-75
2023/03/10 00:26:45;;;;;;;11.00;10.23;;;;;;;9.87;84.19;92100.94;5068748;28;20248;-75
2023/03/10 00:29:11;;;;;;;11.53;10.83;;;;;;;10.01;83.10;92107.72;5069083;28;20228;-75
2023/03/10 00:31:37;;;;;;;10.43;9.73;;;;;;;10.08;82.61;92102.16;5068241;28;20230;-76
2023/03/10 00:34:03;;;;;;;11.13;10.03;;;;;;;10.06;83.06;92097.22;5068313;28;20197;-75
2023/03/10 00:36:30;;;;;;;10.20;9.40;;;;;;;10.06;83.40;92101.66;5068933;28;20252;-69
2023/03/10 00:38:59;;;;;;;12.07;11.27;;;;;;;10.06;83.21;92097.22;5069215;28;20186;-70
2023/03/10 00:41:27;;;;;;;11.27;10.27;;;;;;;9.91;83.61;92089.66;5067616;28;20229;-70
2023/03/10 00:43:53;;;;;;;11.27;10.47;;;;;;;10.00;83.62;92100.97;5068487;28;20229;-69
2023/03/10 00:46:19;;;;;;;11.27;10.40;;;;;;;9.98;83.46;92100.47;5068128;28;20215;-70
2023/03/10 00:48:44;;;;;;;10.90;10.20;;;;;;;9.62;84.75;92092.47;5068313;28;20205;-71
2023/03/10 00:51:10;;;;;;;10.93;10.00;;;;;;;9.74;84.92;92102.47;5067981;28;20255;-71
2023/03/10 00:53:37;;;;;;;10.33;9.43;;;;;;;9.75;85.34;92096.97;5068875;28;20189;-70
2023/03/10 00:56:05;;;;;;;11.53;10.73;;;;;;;9.68;85.57;92087.97;5067370;28;20289;-71
2023/03/10 00:58:31;;;;;;;10.83;10.17;;;;;;;9.64;85.48;92084.38;5067992;28;20209;-70
2023/03/10 01:00:57;;;;;;;11.17;10.43;;;;;;;9.58;85.84;92091.50;5067629;28;20254;-70
2023/03/10 01:03:24;;;;;;;10.33;9.47;;;;;;;9.46;85.56;92077.38;5068892;28;20191;-70
2023/03/10 01:05:50;;;;;;;10.97;10.07;;;;;;;9.35;86.62;92087.13;5067667;28;20210;-70
2023/03/10 01:08:16;;;;;;;11.00;10.27;;;;;;;9.37;86.73;92099.91;5069292;28;20185;-71
2023/03/10 01:10:42;;;;;;;10.33;9.43;;;;;;;9.19;87.74;92091.03;5068298;28;20229;-71
2023/03/10 01:13:10;;;;;;;9.87;9.17;;;;;;;9.17;88.18;92097.56;5070070;28;20189;-70
2023/03/10 01:15:35;;;;;;;10.73;9.93;;;;;;;9.18;87.47;92075.69;5069909;28;20231;-71
2023/03/10 01:18:02;;;;;;;10.10;9.57;;;;;;;9.14;88.12;92093.72;5072322;28;20170;-70
2023/03/10 01:20:29;;;;;;;9.93;9.43;;;;;;;9.19;87.62;92079.84;5071906;28;20254;-70
2023/03/10 01:22:54;;;;;;;11.00;10.40;;;;;;;9.06;87.51;92068.31;5072713;28;20189;-71
2023/03/10 01:25:20;;;;;;;11.47;10.47;;;;;;;9.25;87.64;92061.25;5071909;28;20316;-83
2023/03/10 01:27:45;;;;;;;10.53;9.83;;;;;;;9.05;88.47;92068.59;5072590;28;20197;-76
2023/03/10 01:30:11;;;;;;;10.67;9.77;;;;;;;8.93;88.99;92069.03;5072038;28;20221;-77
2023/03/10 01:32:37;;;;;;;10.27;9.53;;;;;;;8.89;89.90;92067.22;5072580;28;20190;-76
2023/03/10 01:35:04;;;;;;;10.80;9.93;;;;;;;8.85;90.02;92079.28;5072203;28;20189;-75
2023/03/10 01:37:30;;;;;;;11.00;10.40;;;;;;;8.68;90.34;92045.94;5072709;28;20178;-77
2023/03/10 01:39:56;;;;;;;10.30;9.70;;;;;;;8.73;91.15;92071.88;5070154;28;20250;-76
2023/03/10 01:42:21;;;;;;;10.40;9.80;;;;;;;8.68;91.40;92078.97;5072101;28;20186;-76
2023/03/10 01:45:25;;;;;;;10.20;9.50;;;;;;;8.84;90.39;92072.53;5070880;28;20291;-76
2023/03/10 01:47:50;;;;;;;9.37;8.87;;;;;;;8.69;90.65;92072.72;5049808;28;20210;-76
2023/03/10 01:50:18;;;;;;;9.47;8.97;;;;;;;8.44;90.90;92054.81;5033161;28;20384;-76
2023/03/10 01:52:47;;;;;;;10.87;10.37;;;;;;;8.65;90.92;92082.13;5060241;28;20185;-76
2023/03/10 01:55:18;;;;;;;10.57;10.00;;;;;;;8.62;91.78;92083.47;5071720;28;20225;-76
2023/03/10 01:57:55;;;;;;;9.50;9.00;;;;;;;8.60;92.65;92100.41;5071834;28;20196;-76
2023/03/10 02:00:22;;;;;;;10.80;10.10;;;;;;;8.73;92.20;92099.72;5071594;28;20225;-76
2023/03/10 02:03:19;;;;;;;9.57;9.07;;;;;;;8.63;92.41;92081.63;5070424;28;20178;-75
2023/03/10 02:05:48;;;;;;;9.60;9.10;;;;;;;8.68;92.64;92092.78;5071324;28;20306;-76
2023/03/10 02:08:15;;;;;;;10.37;9.87;;;;;;;8.66;92.35;92075.88;5072276;28;20202;-77
2023/03/10 02:10:41;;;;;;;10.50;9.77;;;;;;;8.71;92.70;92086.22;5071206;28;20233;-76
2023/03/10 02:13:06;;;;;;;11.83;11.00;;;;;;;8.73;93.00;92079.69;5103612;28;20201;-76
2023/03/10 02:15:33;;;;;;;10.63;10.03;;;;;;;8.74;92.93;92085.66;5070969;28;20915;-77
2023/03/10 02:18:00;;;;;;;9.67;9.17;;;;;;;8.65;93.44;92080.31;5070704;28;20189;-76
2023/03/10 02:20:40;;;;;;;10.77;9.83;;;;;;;8.74;93.33;92088.25;5070945;28;20252;-76
2023/03/10 02:23:06;;;;;;;11.10;10.50;;;;;;;8.89;92.58;92090.66;5070912;28;20177;-76
2023/03/10 02:25:55;;;;;;;9.73;9.03;;;;;;;9.01;92.05;92091.03;5070584;28;20225;-77
2023/03/10 02:28:22;;;;;;;10.00;9.50;;;;;;;8.98;91.56;92087.16;5070903;28;20280;-76
2023/03/10 02:30:51;;;;;;;9.67;9.17;;;;;;;9.10;91.31;92090.13;5070395;28;20252;-76
2023/03/10 02:33:18;;;;;;;10.20;9.63;;;;;;;9.29;91.03;92096.09;5069655;28;20209;-77
2023/03/10 02:35:44;;;;;;;9.87;9.23;;;;;;;9.23;90.90;92078.25;5070352;28;20257;-76
2023/03/10 02:38:10;;;;;;;10.17;9.57;;;;;;;9.40;90.41;92088.91;5071728;28;20193;-77
2023/03/10 02:40:39;;;;;;;9.37;8.87;;;;;;;9.37;90.83;92090.25;5071206;28;20220;-76
2023/03/10 02:43:12;;;;;;;10.30;9.67;;;;;;;9.17;92.20;92084.53;5071029;28;20266;-76
2023/03/10 02:45:41;;;;;;;10.37;9.73;;;;;;;9.28;90.91;92086.75;5069466;28;20250;-77
2023/03/10 02:48:13;;;;;;;9.17;8.70;;;;;;;9.20;91.08;92078.78;5070938;28;20236;-77
2023/03/10 02:50:41;;;;;;;9.20;8.83;;;;;;;9.37;91.33;92079.06;5070616;28;20229;-76
2023/03/10 02:53:14;;;;;;;8.83;8.33;;;;;;;9.32;90.82;92095.53;5070865;28;20189;-77
2023/03/10 02:55:40;;;;;;;9.37;8.93;;;;;;;8.98;92.94;92094.22;5070542;28;20241;-76
2023/03/10 02:58:05;;;;;;;9.50;9.10;;;;;;;9.14;92.84;92087.72;5070774;28;20217;-77
2023/03/10 03:00:31;;;;;;;9.67;9.17;;;;;;;9.10;92.20;92060.72;5070580;28;20931;-77
2023/03/10 03:02:57;;;;;;;10.27;9.77;;;;;;;9.01;92.52;92065.75;5070633;28;20198;-77
2023/03/10 03:05:23;;;;;;;10.23;9.73;;;;;;;9.17;92.49;92089.75;5069317;28;20218;-76
2023/03/10 03:07:48;;;;;;;10.40;9.90;;;;;;;9.04;93.69;92093.09;5070922;28;20233;-76
2023/03/10 03:10:13;;;;;;;8.97;8.57;;;;;;;9.34;91.81;92090.03;5070284;28;20225;-76
2023/03/10 03:12:39;;;;;;;9.30;8.90;;;;;;;9.51;90.80;92079.88;5103133;28;20197;-76
2023/03/10 03:15:05;;;;;;;10.10;9.60;;;;;;;9.35;91.42;92076.72;5069813;28;20205;-77
2023/03/10 03:17:30;;;;;;;9.33;8.83;;;;;;;9.49;90.40;92079.41;5068344;28;20204;-77
2023/03/10 03:19:56;;;;;;;10.40;9.70;;;;;;;9.47;90.39;92073.69;5069741;28;20185;-76
2023/03/10 03:22:22;;;;;;;10.70;9.97;;;;;;;9.57;90.23;92076.16;5070233;28;20169;-77
2023/03/10 03:24:47;;;;;;;10.27;9.77;;;;;;;9.46;90.43;92072.91;5070051;28;20193;-76
2023/03/10 03:27:13;;;;;;;9.37;8.97;;;;;;;9.43;90.09;92067.50;5069587;28;20231;-76
2023/03/10 03:29:38;;;;;;;11.37;10.53;;;;;;;9.27;91.13;92066.97;5069989;28;20233;-76
2023/03/10 03:32:05;;;;;;;10.17;9.67;;;;;;;9.50;89.57;92067.91;5069346;28;20213;-76
2023/03/10 03:34:30;;;;;;;9.23;8.83;;;;;;;9.31;90.13;92067.16;5070142;28;20178;-77
2023/03/10 03:36:55;;;;;;;9.30;8.90;;;;;;;9.22;90.92;92058.44;5068702;28;20221;-76
2023/03/10 03:39:21;;;;;;;10.50;9.93;;;;;;;9.29;90.83;92053.66;5069703;28;20199;-77
2023/03/10 03:41:47;;;;;;;9.73;9.13;;;;;;;9.29;91.27;92074.50;5069483;28;20218;-76
2023/03/10 03:44:13;;;;;;;10.70;9.93;;;;;;;9.24;90.25;92054.50;5069841;28;20221;-76
2023/03/10 03:46:38;;;;;;;10.10;9.60;;;;;;;9.34;90.47;92053.56;5069351;28;20221;-76
2023/03/10 03:49:04;;;;;;;9.93;9.53;;;;;;;9.31;90.23;92059.34;5069598;28;20284;-76
2023/03/10 03:51:29;;;;;;;9.93;9.30;;;;;;;9.10;91.22;92032.06;5069089;28;20328;-76
2023/03/10 03:53:55;;;;;;;9.47;9.07;;;;;;;9.40;90.62;92073.28;5070045;28;20242;-76
2023/03/10 03:56:20;;;;;;;9.30;8.73;;;;;;;9.52;90.47;92073.63;5069230;28;20215;-77
2023/03/10 03:58:45;;;;;;;10.00;9.47;;;;;;;9.50;89.80;92057.50;5068773;28;20212;-77
2023/03/10 04:01:11;;;;;;;9.57;8.97;;;;;;;9.61;88.75;92072.69;5068870;28;20228;-77
2023/03/10 04:03:37;;;;;;;9.80;9.20;;;;;;;9.58;89.46;92080.28;5069005;28;20193;-76
2023/03/10 04:06:05;;;;;;;10.13;9.53;;;;;;;9.48;90.14;92064.81;5068433;28;20444;-77
2023/03/10 04:08:31;;;;;;;9.83;9.23;;;;;;;9.55;89.33;92052.19;5069040;28;20203;-76
2023/03/10 04:10:56;;;;;;;9.97;9.37;;;;;;;9.48;89.55;92060.38;5068893;28;20217;-77
2023/03/10 04:13:21;;;;;;;11.00;10.40;;;;;;;9.46;89.55;92072.91;5069725;28;20200;-77
2023/03/10 04:15:47;;;;;;;10.43;9.83;;;;;;;9.51;89.84;92066.84;5068333;28;20269;-78
2023/03/10 04:18:12;;;;;;;9.33;8.67;;;;;;;9.50;89.82;92068.69;5085203;28;20196;-77
2023/03/10 04:20:38;;;;;;;10.40;9.80;;;;;;;9.62;89.58;92076.03;5068246;28;20579;-78
2023/03/10 04:23:03;;;;;;;9.60;9.10;;;;;;;9.38;90.47;92070.19;5069575;28;20173;-77
2023/03/10 04:25:30;;;;;;;10.17;9.57;;;;;;;9.42;91.11;92071.94;5067556;28;20232;-72
2023/03/10 04:27:58;;;;;;;10.57;9.97;;;;;;;9.45;90.85;92060.16;5068770;28;20189;-72
2023/03/10 04:30:28;;;;;;;9.73;9.23;;;;;;;9.43;90.86;92070.13;5067721;28;20229;-72
2023/03/10 04:32:57;;;;;;;9.43;8.83;;;;;;;9.38;91.57;92060.56;5069102;28;20177;-72
2023/03/10 04:35:22;;;;;;;10.60;10.00;;;;;;;9.23;92.25;92054.78;5083199;28;20220;-72
2023/03/10 04:37:47;;;;;;;9.90;9.13;;;;;;;9.15;91.89;92034.59;5069652;28;20218;-72
2023/03/10 04:40:13;;;;;;;11.83;11.13;;;;;;;9.13;92.39;92041.91;5068024;28;20226;-72
2023/03/10 04:42:39;;;;;;;10.97;10.17;;;;;;;9.29;91.89;92054.41;5067971;28;20188;-73
2023/03/10 04:45:05;;;;;;;10.20;9.60;;;;;;;9.35;91.17;92048.06;5068230;28;20252;-72
2023/03/10 04:47:31;;;;;;;10.77;9.93;;;;;;;9.34;91.35;92053.56;5067585;28;20277;-71
2023/03/10 04:49:56;;;;;;;10.87;10.17;;;;;;;9.24;92.43;92058.94;5068417;28;20227;-74
2023/03/10 04:52:22;;;;;;;11.03;10.23;;;;;;;9.20;92.33;92050.13;5067557;28;20241;-81
2023/03/10 04:54:47;;;;;;;9.83;9.33;;;;;;;9.30;91.63;92029.16;5065903;28;20185;-77
2023/03/10 04:57:13;;;;;;;9.60;9.10;;;;;;;9.18;92.95;92047.81;5067429;28;20226;-79
2023/03/10 04:59:38;;;;;;;10.23;9.50;;;;;;;9.17;92.87;92027.25;5067269;28;21725;-79
2023/03/10 05:02:04;;;;;;;10.00;9.07;;;;;;;9.21;92.55;92043.88;5065281;28;20248;-76
2023/03/10 05:04:29;;;;;;;10.10;9.60;;;;;;;9.13;93.20;92021.09;5066781;28;20186;-76
2023/03/10 05:06:54;;;;;;;10.37;9.87;;;;;;;9.15;92.55;92014.53;5067818;28;20213;-75
2023/03/10 05:09:20;;;;;;;9.40;8.80;;;;;;;9.30;92.49;92023.94;5068573;28;20217;-74
2023/03/10 05:11:45;;;;;;;9.43;8.97;;;;;;;9.21;92.37;92020.44;5068370;28;20224;-72
2023/03/10 05:14:12;;;;;;;9.50;9.00;;;;;;;9.10;92.97;92012.03;5066398;28;20244;-74
2023/03/10 05:16:37;;;;;;;8.77;8.40;;;;;;;9.29;92.60;92015.34;5068258;28;20233;-72
2023/03/10 05:19:03;;;;;;;9.67;9.17;;;;;;;9.27;92.37;92011.50;5067558;28;20199;-76
2023/03/10 05:21:28;;;;;;;9.83;9.37;;;;;;;9.32;91.94;92020.00;5068381;28;20260;-72
2023/03/10 05:23:54;;;;;;;10.97;10.47;;;;;;;9.31;92.72;92017.66;5064058;28;20261;-73
2023/03/10 05:26:19;;;;;;;9.90;9.40;;;;;;;9.49;92.32;92011.66;5067261;28;20213;-72
2023/03/10 05:28:44;;;;;;;11.33;10.50;;;;;;;9.57;91.38;92000.59;5066438;28;20645;-73
2023/03/10 05:31:13;;;;;;;11.30;10.20;;;;;;;9.68;92.18;91992.28;5098804;28;20241;-73
2023/03/10 05:33:39;;;;;;;9.20;8.80;;;;;;;9.82;91.44;92002.75;5066850;28;20204;-73
2023/03/10 05:36:08;;;;;;;10.67;9.90;;;;;;;9.95;90.29;92012.41;5099016;28;20229;-72
2023/03/10 05:38:34;;;;;;;10.80;9.93;;;;;;;10.10;89.34;91995.75;5077345;28;20225;-73
2023/03/10 05:41:00;;;;;;;9.53;8.77;;;;;;;10.07;88.88;92002.28;5066991;28;20938;-70
2023/03/10 05:43:25;;;;;;;9.40;8.90;;;;;;;10.21;88.81;91997.09;5066828;28;20280;-70
2023/03/10 05:45:58;;;;;;;10.43;9.73;;;;;;;10.36;88.25;92010.63;5065092;28;20286;-69
2023/03/10 05:48:24;;;;;;;11.27;10.13;;;;;;;10.45;87.57;92013.28;5065727;28;20192;-69
2023/03/10 05:51:01;;;;;;;9.67;8.97;;;;;;;10.50;87.62;91998.31;5063453;28;20239;-69
2023/03/10 05:53:28;;;;;;;9.83;8.87;;;;;;;10.48;88.00;91995.22;5098398;28;20194;-68
2023/03/10 05:55:54;;;;;;;9.73;8.83;;;;;;;10.61;87.54;92004.09;5064914;28;20221;-68
2023/03/10 05:58:20;;;;;;;10.10;9.47;;;;;;;10.53;87.79;91997.75;5065613;28;20186;-68
2023/03/10 06:00:45;;;;;;;10.63;9.83;;;;;;;10.60;88.05;91995.50;5066328;28;20668;-68
2023/03/10 06:03:11;;;;;;;9.93;9.33;;;;;;;10.77;87.20;91990.41;5067457;28;20190;-68
2023/03/10 06:05:36;;;;;;;9.20;8.40;;;;;;;10.91;86.82;91991.16;5064011;28;20226;-70
2023/03/10 06:08:02;;;;;;;10.43;9.53;;;;;;;11.02;86.42;91995.09;5068741;28;20206;-70
2023/03/10 06:10:27;;;;;;;9.67;9.17;;;;;;;11.16;86.00;91995.81;5068434;28;20244;-69
2023/03/10 06:12:54;;;;;;;9.97;9.37;;;;;;;11.32;85.31;92004.06;5069779;28;20212;-69
2023/03/10 06:15:20;;;;;;;10.63;9.93;;;;;;;11.38;84.68;91999.50;5069199;28;20253;-70
2023/03/10 06:17:45;;;;;;;9.47;8.87;;;;;;;11.53;84.70;92006.97;5069395;28;20194;-70
2023/03/10 06:20:11;;;;;;;9.87;9.17;;;;;;;11.67;84.29;92010.31;5069575;28;20240;-70
2023/03/10 06:22:36;;;;;;;13.27;10.30;;;;;;;11.82;82.93;92005.50;5070185;28;20212;-70
2023/03/10 06:25:02;;;;;;;13.17;12.07;;;;;;;11.68;82.88;91998.78;5069193;28;20224;-71
2023/03/10 06:27:29;;;;;;;12.10;11.10;;;;;;;11.49;83.51;91993.72;5071460;28;20192;-67
2023/03/10 06:29:54;;;;;;;11.63;10.53;;;;;;;11.55;83.70;92008.22;5069127;28;20224;-70
2023/03/10 06:32:20;;;;;;;12.97;11.77;;;;;;;11.59;83.92;92003.16;5070468;28;20170;-73
2023/03/10 06:34:45;;;;;;;13.40;11.93;;;;;;;11.62;83.89;92002.56;5068746;28;20208;-73
2023/03/10 06:37:11;;;;;;;12.13;11.30;;;;;;;11.58;83.65;91996.41;5064369;28;20287;-73
2023/03/10 06:39:38;;;;;;;11.83;10.83;;;;;;;11.72;83.85;92003.13;5069127;28;20209;-72
2023/03/10 06:42:04;;;;;;;15.97;13.33;;;;;;;11.82;83.54;92002.09;5068780;28;21018;-76
2023/03/10 06:44:29;;;;;;;14.87;13.37;;;;;;;11.88;84.16;92000.88;5069561;28;20237;-75
2023/03/10 06:46:55;;;;;;;14.20;12.83;;;;;;;12.03;82.89;92008.38;5070008;28;20232;-75
2023/03/10 06:49:20;;;;;;;18.60;12.07;;;;;;;12.15;82.37;92016.41;5070691;28;20918;-76
2023/03/10 06:51:46;;;;;;;15.97;12.40;;;;;;;12.14;82.67;92007.78;5070141;28;20221;-76
2023/03/10 06:54:11;;;;;;;14.23;11.90;;;;;;;12.32;81.48;92008.63;5071040;28;20189;-76
2023/03/10 06:56:36;;;;;;;12.43;11.43;;;;;;;12.15;81.57;91998.09;5069786;28;20226;-76
2023/03/10 06:59:02;;;;;;;13.37;12.17;;;;;;;12.12;82.25;92017.00;5070332;28;20196;-77
2023/03/10 07:01:30;;;;;;;13.30;11.93;;;;;;;12.13;81.88;92013.31;5069006;28;20221;-76
2023/03/10 07:03:56;;;;;;;14.07;12.10;;;;;;;12.16;81.79;92018.72;5069077;28;20198;-76
2023/03/10 07:06:22;;;;;;;13.60;12.30;;;;;;;12.02;82.54;92006.81;5068389;28;20213;-76
2023/03/10 07:08:48;;;;;;;28.83;13.07;;;;;;;11.83;82.83;92009.63;5069307;28;20193;-76
2023/03/10 07:11:14;;;;;;;27.67;13.37;;;;;;;11.81;82.92;92019.66;5069136;28;20217;-76
2023/03/10 07:13:40;;;;;;;15.00;12.00;;;;;;;11.84;80.86;92015.66;5069943;28;20200;-76
2023/03/10 07:16:06;;;;;;;13.60;12.20;;;;;;;11.79;81.79;92005.31;5068259;28;20221;-76
2023/03/10 07:18:32;;;;;;;13.13;10.90;;;;;;;12.08;80.98;92003.75;5070345;28;20734;-76
2023/03/10 07:20:57;;;;;;;13.77;11.10;;;;;;;12.29;79.90;91986.47;5069974;28;20218;-75
2023/03/10 07:23:23;;;;;;;13.57;12.20;;;;;;;12.43;79.26;91987.13;5070927;28;20182;-75
2023/03/10 07:25:53;;;;;;;15.17;11.97;;;;;;;12.40;79.14;91984.31;5070206;28;20229;-76
2023/03/10 07:28:19;;;;;;;17.47;12.63;;;;;;;12.61;78.31;91972.19;5069997;28;20276;-76
2023/03/10 07:30:44;;;;;;;14.73;11.90;;;;;;;12.53;78.45;91997.28;5068905;28;20229;-77
2023/03/10 07:33:10;;;;;;;13.83;11.80;;;;;;;12.68;78.07;91983.00;5070311;28;20201;-75
2023/03/10 07:35:36;;;;;;;16.33;12.13;;;;;;;12.62;78.08;91976.38;5070199;28;20359;-76
2023/03/10 07:38:01;;;;;;;14.03;11.80;;;;;;;12.79;77.42;92010.44;5070587;28;20574;-76
2023/03/10 07:40:27;;;;;;;12.73;11.43;;;;;;;12.91;77.20;92011.38;5065048;28;20221;-77
2023/03/10 07:42:55;;;;;;;14.97;11.10;;;;;;;13.05;77.02;92003.41;5049471;28;20246;-76
2023/03/10 07:45:22;;;;;;;13.43;12.13;;;;;;;13.27;74.85;91984.91;5053767;28;20224;-76
2023/03/10 07:47:52;;;;;;;19.03;12.60;;;;;;;13.35;73.83;91980.75;5070304;28;20174;-76
2023/03/10 07:50:18;;;;;;;11.93;10.93;;;;;;;13.48;73.29;91970.06;5068452;28;20229;-77
2023/03/10 07:52:43;;;;;;;17.77;11.87;;;;;;;13.37;74.01;91968.84;5070344;28;20430;-76
2023/03/10 07:55:09;;;;;;;14.67;13.17;;;;;;;12.63;77.01;91978.69;5069565;28;20343;-75
2023/03/10 07:57:34;;;;;;;13.70;12.20;;;;;;;13.24;73.85;91974.28;5069149;28;20191;-76
2023/03/10 08:00:00;;;;;;;13.87;11.60;;;;;;;13.46;73.35;91951.28;5069302;28;20220;-75
2023/03/10 08:02:25;;;;;;;13.00;11.83;;;;;;;13.51;72.27;91943.22;5069696;28;21252;-76
2023/03/10 08:04:51;;;;;;;22.57;12.30;;;;;;;13.40;72.93;91949.88;5069434;28;20180;-76
2023/03/10 08:07:17;;;;;;;14.50;13.20;;;;;;;13.71;72.38;91958.28;5069426;28;20268;-76
2023/03/10 08:09:49;;;;;;;15.70;12.30;;;;;;;13.45;73.15;91943.72;5069755;28;20208;-75
2023/03/10 08:12:14;;;;;;;15.67;12.00;;;;;;;13.25;74.17;91960.06;5067310;28;20269;-76
2023/03/10 08:14:40;;;;;;;17.90;11.50;;;;;;;13.37;72.09;91937.38;5069568;28;20185;-76
2023/03/10 08:17:05;;;;;;;12.17;10.90;;;;;;;13.38;72.81;91931.09;5068904;28;20220;-77
2023/03/10 08:19:31;;;;;;;11.83;10.63;;;;;;;13.14;72.69;91919.53;5069452;28;20208;-76
2023/03/10 08:21:56;;;;;;;12.20;10.20;;;;;;;13.24;73.46;91924.47;5068635;28;20232;-77
2023/03/10 08:24:23;;;;;;;13.53;12.47;;;;;;;13.32;73.42;91923.69;5068819;28;20182;-77
2023/03/10 08:26:49;;;;;;;11.10;10.13;;;;;;;13.61;71.36;91932.41;5068293;28;20267;-77
2023/03/10 08:29:14;;;;;;;11.37;10.40;;;;;;;13.59;71.90;91924.09;5069249;28;20216;-77
2023/03/10 08:31:40;;;;;;;12.27;11.10;;;;;;;13.66;71.24;91920.97;5068247;28;20756;-76
2023/03/10 08:34:05;;;;;;;10.90;9.80;;;;;;;13.59;72.66;91897.84;5069558;28;20215;-76
2023/03/10 08:36:31;;;;;;;9.97;9.17;;;;;;;14.21;69.30;91911.94;5068192;28;20224;-75
2023/03/10 08:38:59;;;;;;;11.17;10.13;;;;;;;14.35;68.73;91909.13;5069785;28;20193;-76
2023/03/10 08:41:37;;;;;;;11.23;10.47;;;;;;;13.87;70.10;91883.25;5068185;28;20209;-76
2023/03/10 08:44:03;;;;;;;11.03;10.33;;;;;;;14.28;69.99;91893.88;5068864;28;20220;-76
2023/03/10 08:46:31;;;;;;;11.60;10.50;;;;;;;13.98;70.60;91899.41;5067517;28;20321;-76
2023/03/10 08:48:57;;;;;;;10.60;9.87;;;;;;;14.36;69.11;91892.28;5069091;28;20205;-75
2023/03/10 08:51:23;;;;;;;10.13;9.53;;;;;;;14.35;67.68;91881.00;5067418;28;20217;-75
2023/03/10 08:53:49;;;;;;;9.50;8.90;;;;;;;14.26;67.79;91879.53;5069055;28;20189;-76
2023/03/10 08:56:16;;;;;;;9.60;9.07;;;;;;;14.14;67.89;91887.28;5067979;28;20217;-76
2023/03/10 08:58:42;;;;;;;9.90;8.93;;;;;;;14.26;69.14;91882.16;5069211;28;20273;-76
2023/03/10 09:01:08;;;;;;;15.77;12.73;;;;;;;14.50;67.36;91871.81;5065615;28;20221;-75
2023/03/10 09:03:38;;;;;;;11.70;9.80;;;;;;;14.45;68.24;91878.03;5069036;28;20193;-76
2023/03/10 09:06:04;;;;;;;12.10;11.10;;;;;;;14.60;66.84;91868.78;5068162;28;20245;-76
2023/03/10 09:08:30;;;;;;;10.37;9.23;;;;;;;14.38;67.66;91880.38;5069367;28;20201;-76
2023/03/10 09:10:55;;;;;;;9.93;9.23;;;;;;;14.30;67.14;91875.94;5068101;28;20251;-76
2023/03/10 09:13:21;;;;;;;10.37;9.47;;;;;;;14.24;66.73;91873.84;5069094;28;20223;-76
2023/03/10 09:15:47;;;;;;;10.47;9.63;;;;;;;14.36;67.51;91885.19;5067163;28;20256;-76
2023/03/10 09:18:14;;;;;;;10.43;9.43;;;;;;;14.58;66.36;91884.13;5068790;28;20185;-76
2023/03/10 09:20:41;;;;;;;9.87;9.37;;;;;;;14.56;66.47;91867.13;5067961;28;20260;-76
2023/03/10 09:23:09;;;;;;;11.13;10.10;;;;;;;14.93;66.23;91871.47;5067444;28;20176;-76
2023/03/10 09:25:34;;;;;;;9.50;8.80;;;;;;;15.20;63.35;91865.66;5067890;28;20255;-76
2023/03/10 09:27:59;;;;;;;9.57;8.80;;;;;;;15.21;64.09;91857.44;5069113;28;20194;-76
2023/03/10 09:30:25;;;;;;;13.57;9.80;;;;;;;14.92;65.24;91854.94;5099281;28;20213;-75
2023/03/10 09:32:51;;;;;;;10.23;9.43;;;;;;;14.78;65.65;91853.66;5068476;28;20220;-76
2023/03/10 09:35:17;;;;;;;9.87;8.87;;;;;;;14.50;66.82;91853.44;5069871;28;20224;-76
2023/03/10 09:37:42;;;;;;;10.67;9.77;;;;;;;14.36;67.57;91860.78;5072926;28;20197;-76
2023/03/10 09:40:14;;;;;;;10.53;9.50;;;;;;;14.64;66.21;91853.16;5104868;28;20209;-76
2023/03/10 09:42:46;;;;;;;10.80;10.10;;;;;;;14.81;64.86;91851.19;5104897;28;20177;-76
2023/03/10 09:45:54;;;;;;;10.83;9.97;;;;;;;14.40;66.81;91848.53;5071056;28;20229;-76
2023/03/10 09:48:41;;;;;;;9.73;9.10;;;;;;;14.09;67.73;91846.25;5072479;28;20200;-76
2023/03/10 09:51:39;;;;;;;11.93;11.03;;;;;;;14.07;68.14;91851.03;5071282;28;20233;-76
2023/03/10 09:54:22;;;;;;;11.13;10.23;;;;;;;14.01;69.12;91854.16;5063871;28;20244;-76
2023/03/10 09:56:47;;;;;;;10.40;9.60;;;;;;;14.02;70.13;91839.97;5071431;28;20229;-76
2023/03/10 09:59:34;;;;;;;10.97;10.00;;;;;;;13.94;69.37;91828.44;5072317;28;20224;-76
2023/03/10 10:02:01;;;;;;;12.07;9.73;;;;;;;13.36;73.26;91812.66;5071454;28;20217;-76
2023/03/10 10:04:33;;;;;;;10.67;9.77;;;;;;;13.57;72.11;91804.84;5072072;28;20312;-76
2023/03/10 10:07:00;;;;;;;10.83;10.03;;;;;;;13.86;70.83;91810.88;5071286;28;20210;-76
2023/03/10 10:10:01;;;;;;;10.70;9.77;;;;;;;13.93;70.42;91810.38;5072533;28;20216;-75
2023/03/10 10:12:26;;;;;;;10.47;9.77;;;;;;;14.03;70.17;91808.16;5064128;28;20306;-76
2023/03/10 10:14:58;;;;;;;10.20;9.33;;;;;;;13.98;70.97;91805.69;5071495;28;20182;-76
2023/03/10 10:17:32;;;;;;;11.03;10.10;;;;;;;13.69;72.47;91804.94;5071523;28;20185;-76
2023/03/10 10:19:58;;;;;;;12.07;9.83;;;;;;;13.77;70.91;91796.25;5071356;28;20190;-76
2023/03/10 10:22:30;;;;;;;10.93;10.17;;;;;;;13.85;70.36;91793.56;5071470;28;20261;-76
2023/03/10 10:25:09;;;;;;;11.07;10.07;;;;;;;13.82;71.11;91812.56;5070026;28;20197;-76
2023/03/10 10:27:36;;;;;;;11.07;10.37;;;;;;;13.86;71.95;91808.25;5070714;28;20189;-76
2023/03/10 10:30:29;;;;;;;11.10;10.03;;;;;;;13.44;75.34;91801.34;5069663;28;20210;-76
2023/03/10 10:32:56;;;;;;;13.83;10.17;;;;;;;13.71;74.79;91792.28;5100087;28;20196;-76
2023/03/10 10:35:24;;;;;;;11.47;10.57;;;;;;;13.92;72.57;91790.47;5069871;28;20233;-76
2023/03/10 10:38:19;;;;;;;10.17;9.37;;;;;;;13.95;74.09;91795.84;5070577;28;20786;-76
2023/03/10 10:40:48;;;;;;;11.43;10.40;;;;;;;13.83;76.58;91793.16;5070960;28;20237;-76
2023/03/10 10:43:18;;;;;;;12.00;11.00;;;;;;;13.85;75.44;91793.56;5071412;28;20193;-77
2023/03/10 10:45:54;;;;;;;11.80;10.53;;;;;;;13.67;76.65;91758.06;5069809;28;20955;-76
2023/03/10 10:48:40;;;;;;;11.37;10.50;;;;;;;13.71;77.32;91790.41;5086548;28;20181;-76
2023/03/10 10:51:18;;;;;;;11.70;10.57;;;;;;;13.57;78.11;91773.38;5069783;28;20236;-76
2023/03/10 10:53:44;;;;;;;11.70;10.50;;;;;;;13.54;75.54;91777.38;5071188;28;20219;-76
2023/03/10 10:56:17;;;;;;;12.10;11.17;;;;;;;13.56;76.85;91782.31;5070211;28;20213;-76
2023/03/10 10:59:25;;;;;;;11.30;10.30;;;;;;;13.42;77.17;91756.31;5070192;28;20180;-76
2023/03/10 11:02:02;;;;;;;11.10;10.17;;;;;;;13.61;78.14;91775.06;5070034;28;20236;-76
2023/03/10 11:04:40;;;;;;;12.23;10.97;;;;;;;13.40;81.45;91766.34;5102864;28;20185;-75
2023/03/10 11:07:18;;;;;;;11.17;10.17;;;;;;;13.39;84.10;91745.69;5068623;28;20819;-76
2023/03/10 11:09:45;;;;;;;10.27;9.37;;;;;;;13.38;84.17;91754.66;5071715;28;20201;-77
2023/03/10 11:12:42;;;;;;;10.37;9.77;;;;;;;13.20;86.68;91740.09;5069746;28;20229;-77
2023/03/10 11:15:17;;;;;;;10.17;9.60;;;;;;;12.98;87.42;91720.09;5049700;28;20301;-76
2023/03/10 11:17:58;;;;;;;9.47;8.90;;;;;;;12.87;91.30;91718.94;5070150;28;20181;-76
2023/03/10 11:20:44;;;;;;;9.30;8.80;;;;;;;12.85;91.16;91710.59;5068749;28;20225;-77
2023/03/10 11:23:23;;;;;;;8.87;8.47;;;;;;;12.92;91.99;91688.06;5070587;28;20199;-77
2023/03/10 11:26:00;;;;;;;9.63;8.83;;;;;;;12.88;92.61;91699.50;5102721;28;20312;-76
2023/03/10 11:29:03;;;;;;;9.87;9.20;;;;;;;13.08;92.15;91687.56;5069503;28;20194;-77
2023/03/10 11:32:11;;;;;;;8.80;8.30;;;;;;;13.24;92.83;91672.84;5068350;28;20243;-77
2023/03/10 11:34:43;;;;;;;8.73;8.13;;;;;;;13.40;94.59;91682.47;5068707;28;20190;-77